Terminal Aerodrome Forecast
Issued by NWS

Home | Current Version | Previous Version | Text Only | Print | Product List | Glossary On
Versions: 1 2 3 4 5 6 7 8 9 10 11 12 13 14 15 16 17 18 19 20 21 22 23
000
FTUS43 KDLH 192100 AAA
TAFHYR
TAF AMD
KHYR 192116Z 1921/2018 20010KT P6SM VCSH SCT020 OVC035
      TEMPO 1923/2001 6SM -SHRA BKN025
     FM200200 19004KT 3SM BR SCT010 BKN035
      TEMPO 2005/2009 1SM BR BKN010
     FM201300 27005KT P6SM BKN015=

USA.gov is the U.S. government's official web portal to all federal, state and local government web resources and services.